Time;durP1;ratioP1;P1;durP2;ratioP2;P2;SDS_P1;SDS_P2;PMS_P1;PMS_P2;Temp;Humidity;BMP_temperature;BMP_pressure;BME280_temperature;BME280_humidity;BME280_pressure;Samples;Min_cycle;Max_cycle;Signal;HPM_P1;HPM_P2
2022/06/15 00:00:14;;;;;;;3.67;1.20;;;;;;;;;;5105858;28;20236;-21
2022/06/15 00:02:43;;;;;;;3.72;1.00;;;;;;;;;;5111308;27;20690;-21
2022/06/15 00:05:12;;;;;;;2.05;1.05;;;;;;;;;;5114716;27;20231;-20
2022/06/15 00:07:39;;;;;;;3.03;0.95;;;;;;;;;;5108420;28;20706;-21
2022/06/15 00:10:07;;;;;;;7.25;1.23;;;;;;;;;;5107148;27;20232;-21
2022/06/15 00:12:36;;;;;;;8.55;1.42;;;;;;;;;;5106073;28;20232;-21
2022/06/15 00:15:03;;;;;;;4.25;1.85;;;;;;;;;;5104330;27;20235;-20
2022/06/15 00:17:31;;;;;;;4.82;1.65;;;;;;;;;;5105621;27;20244;-21
2022/06/15 00:19:58;;;;;;;4.10;1.40;;;;;;;;;;5114305;27;20232;-21
2022/06/15 00:22:27;;;;;;;4.45;1.15;;;;;;;;;;5106046;27;20251;-21
2022/06/15 00:24:54;;;;;;;2.65;1.30;;;;;;;;;;5106765;28;20235;-21
2022/06/15 00:27:22;;;;;;;2.25;1.20;;;;;;;;;;5104767;27;20236;-21
2022/06/15 00:29:49;;;;;;;1.88;1.00;;;;;;;;;;5112673;27;20224;-20
2022/06/15 00:32:17;;;;;;;3.70;1.05;;;;;;;;;;5117805;27;20231;-21
2022/06/15 00:34:44;;;;;;;1.90;1.00;;;;;;;;;;5114048;27;20228;-21
2022/06/15 00:37:11;;;;;;;1.75;0.80;;;;;;;;;;5118660;27;20258;-21
2022/06/15 00:39:41;;;;;;;3.53;1.40;;;;;;;;;;5114601;27;20239;-21
2022/06/15 00:42:09;;;;;;;4.57;1.00;;;;;;;;;;5119520;27;20239;-21
2022/06/15 00:44:37;;;;;;;3.85;1.00;;;;;;;;;;5114077;27;20232;-20
2022/06/15 00:47:06;;;;;;;5.07;1.00;;;;;;;;;;5119660;27;20220;-21
2022/06/15 00:49:35;;;;;;;1.98;1.13;;;;;;;;;;5111911;28;20293;-21
2022/06/15 00:52:03;;;;;;;2.97;1.05;;;;;;;;;;5119144;27;20232;-21
2022/06/15 00:54:31;;;;;;;5.00;1.00;;;;;;;;;;5112421;27;20703;-21
2022/06/15 00:56:59;;;;;;;3.22;1.10;;;;;;;;;;5112560;27;20267;-21
2022/06/15 00:59:28;;;;;;;2.97;1.17;;;;;;;;;;5113016;27;21022;-21
2022/06/15 01:01:55;;;;;;;2.25;1.13;;;;;;;;;;5113802;27;20224;-20
2022/06/15 01:04:23;;;;;;;1.42;1.00;;;;;;;;;;5113205;27;20228;-20
2022/06/15 01:06:51;;;;;;;4.18;1.10;;;;;;;;;;5113469;27;20224;-20
2022/06/15 01:09:20;;;;;;;2.53;1.13;;;;;;;;;;5119105;27;20278;-22
2022/06/15 01:11:51;;;;;;;4.25;1.05;;;;;;;;;;5118701;27;20227;-21
2022/06/15 01:14:24;;;;;;;2.45;1.00;;;;;;;;;;5124519;27;20230;-20
2022/06/15 01:16:53;;;;;;;2.35;1.25;;;;;;;;;;5121262;27;20258;-19
2022/06/15 01:19:28;;;;;;;2.72;1.30;;;;;;;;;;5124360;27;20244;-21
2022/06/15 01:21:57;;;;;;;4.07;1.60;;;;;;;;;;5115348;27;20239;-21
2022/06/15 01:24:32;;;;;;;3.35;1.27;;;;;;;;;;5113507;27;20877;-21
2022/06/15 01:27:03;;;;;;;2.38;1.15;;;;;;;;;;5113861;27;20231;-21
2022/06/15 01:29:36;;;;;;;2.42;1.10;;;;;;;;;;5110603;27;20229;-20
2022/06/15 01:32:06;;;;;;;6.28;1.42;;;;;;;;;;5114435;27;20224;-20
2022/06/15 01:34:36;;;;;;;3.78;1.08;;;;;;;;;;5115923;27;20690;-21
2022/06/15 01:37:05;;;;;;;7.03;1.08;;;;;;;;;;5119580;27;20710;-20
2022/06/15 01:39:34;;;;;;;6.53;1.15;;;;;;;;;;5117538;27;20240;-20
2022/06/15 01:42:04;;;;;;;2.30;1.20;;;;;;;;;;5119375;27;20232;-21
2022/06/15 01:44:32;;;;;;;3.20;1.27;;;;;;;;;;5113261;27;20909;-20
2022/06/15 01:47:00;;;;;;;5.18;1.30;;;;;;;;;;5113655;27;20326;-20
2022/06/15 01:49:30;;;;;;;2.05;1.17;;;;;;;;;;5113542;27;20227;-21
2022/06/15 01:51:57;;;;;;;5.25;1.23;;;;;;;;;;5121414;27;20239;-21
2022/06/15 01:54:25;;;;;;;4.57;1.17;;;;;;;;;;5126599;27;20227;-21
2022/06/15 01:56:53;;;;;;;2.03;1.15;;;;;;;;;;5119547;27;20698;-20
2022/06/15 01:59:21;;;;;;;5.28;1.38;;;;;;;;;;5118510;27;20242;-20
2022/06/15 02:01:50;;;;;;;2.42;1.17;;;;;;;;;;5118461;27;20235;-21
2022/06/15 02:04:20;;;;;;;2.70;1.25;;;;;;;;;;5119465;27;20212;-21
2022/06/15 02:06:51;;;;;;;4.18;1.13;;;;;;;;;;5124679;27;20243;-21
2022/06/15 02:09:20;;;;;;;2.58;1.30;;;;;;;;;;5115944;27;20228;-21
2022/06/15 02:11:48;;;;;;;6.60;1.23;;;;;;;;;;5119552;27;20314;-21
2022/06/15 02:14:17;;;;;;;4.45;1.25;;;;;;;;;;5112174;27;20239;-21
2022/06/15 02:16:45;;;;;;;3.53;1.60;;;;;;;;;;5116438;27;20977;-20
2022/06/15 02:19:13;;;;;;;2.35;1.08;;;;;;;;;;5110377;28;20235;-20
2022/06/15 02:21:41;;;;;;;1.40;1.00;;;;;;;;;;5122093;22;20262;-17
2022/06/15 02:24:10;;;;;;;3.15;1.17;;;;;;;;;;5109817;27;20224;-15
2022/06/15 02:26:37;;;;;;;1.95;1.20;;;;;;;;;;5106308;27;20234;-15
2022/06/15 02:29:05;;;;;;;4.65;1.52;;;;;;;;;;5109947;27;20240;-17
2022/06/15 02:31:33;;;;;;;2.38;1.00;;;;;;;;;;5100894;27;20220;-18
2022/06/15 02:34:02;;;;;;;1.92;1.10;;;;;;;;;;5109250;28;20227;-15
2022/06/15 02:36:31;;;;;;;4.50;1.40;;;;;;;;;;5095613;27;20247;-17
2022/06/15 02:38:58;;;;;;;2.58;1.25;;;;;;;;;;5099992;28;20242;-15
2022/06/15 02:41:27;;;;;;;3.38;1.20;;;;;;;;;;5106089;28;20224;-17
2022/06/15 02:43:55;;;;;;;2.80;1.30;;;;;;;;;;5104573;27;20255;-17
2022/06/15 02:46:23;;;;;;;2.25;1.33;;;;;;;;;;5098727;28;20233;-17
2022/06/15 02:48:50;;;;;;;6.00;1.73;;;;;;;;;;5096257;28;20235;-17
2022/06/15 02:51:19;;;;;;;3.00;1.33;;;;;;;;;;5098687;28;20220;-15
2022/06/15 02:53:47;;;;;;;2.08;1.17;;;;;;;;;;5100287;28;20234;-15
2022/06/15 02:56:14;;;;;;;2.60;1.05;;;;;;;;;;5104845;27;20228;-15
2022/06/15 02:58:43;;;;;;;4.03;1.42;;;;;;;;;;5103560;28;20247;-15
2022/06/15 03:01:11;;;;;;;2.10;1.08;;;;;;;;;;5098826;27;20235;-15
2022/06/15 03:03:38;;;;;;;2.38;1.40;;;;;;;;;;5109433;28;21082;-15
2022/06/15 03:06:08;;;;;;;2.65;1.17;;;;;;;;;;5116092;27;21086;-15
2022/06/15 03:08:35;;;;;;;1.98;0.98;;;;;;;;;;5108491;27;21013;-15
2022/06/15 03:11:03;;;;;;;11.73;1.33;;;;;;;;;;5113432;28;20352;-15
2022/06/15 03:13:30;;;;;;;3.92;1.08;;;;;;;;;;5115235;27;20241;-16
2022/06/15 03:15:59;;;;;;;2.45;1.50;;;;;;;;;;5112091;27;20227;-15
2022/06/15 03:18:26;;;;;;;3.08;1.50;;;;;;;;;;5107951;27;20614;-15
2022/06/15 03:20:56;;;;;;;2.03;1.27;;;;;;;;;;5099778;27;20243;-15
2022/06/15 03:23:23;;;;;;;2.60;1.25;;;;;;;;;;5102196;28;20271;-15
2022/06/15 03:25:52;;;;;;;2.15;1.20;;;;;;;;;;5094740;28;20234;-15
2022/06/15 03:28:20;;;;;;;7.00;1.63;;;;;;;;;;5104061;28;20224;-15
2022/06/15 03:30:47;;;;;;;4.63;1.48;;;;;;;;;;5098061;28;20221;-15
2022/06/15 03:33:16;;;;;;;3.45;1.20;;;;;;;;;;5099117;28;20233;-15
2022/06/15 03:35:43;;;;;;;3.33;1.48;;;;;;;;;;5097361;28;20754;-15
2022/06/15 03:38:11;;;;;;;3.72;1.50;;;;;;;;;;5103864;28;22265;-15
2022/06/15 03:40:38;;;;;;;2.38;1.13;;;;;;;;;;5110188;28;21000;-17
2022/06/15 03:43:06;;;;;;;2.67;1.10;;;;;;;;;;5115076;28;20235;-17
2022/06/15 03:45:33;;;;;;;2.80;1.27;;;;;;;;;;5107523;28;20232;-17
2022/06/15 03:48:00;;;;;;;2.83;1.42;;;;;;;;;;5114377;28;20279;-16
2022/06/15 03:50:31;;;;;;;2.95;1.17;;;;;;;;;;5110273;27;20231;-17
2022/06/15 03:52:59;;;;;;;2.10;1.30;;;;;;;;;;5098445;28;20233;-17
2022/06/15 03:55:28;;;;;;;2.25;1.20;;;;;;;;;;5105504;27;20275;-17
2022/06/15 03:57:55;;;;;;;2.13;1.10;;;;;;;;;;5111900;28;20216;-17
2022/06/15 04:00:23;;;;;;;3.00;1.42;;;;;;;;;;5113919;28;20232;-17
2022/06/15 04:02:51;;;;;;;2.67;1.67;;;;;;;;;;5099063;28;20229;-17
2022/06/15 04:05:19;;;;;;;3.55;1.30;;;;;;;;;;5109189;28;20235;-17
2022/06/15 04:10:33;;;;;;;2.83;1.42;;;;;;;;;;5114363;28;20905;-16
2022/06/15 04:13:00;;;;;;;2.70;1.20;;;;;;;;;;5104597;28;20719;-17
2022/06/15 04:15:28;;;;;;;2.65;1.42;;;;;;;;;;5102859;28;20228;-17
2022/06/15 04:17:56;;;;;;;3.35;1.25;;;;;;;;;;5108288;28;20228;-17
2022/06/15 04:20:33;;;;;;;1.67;1.05;;;;;;;;;;5099315;28;20240;-17
2022/06/15 04:23:02;;;;;;;2.65;1.25;;;;;;;;;;5102074;28;20724;-17
2022/06/15 04:25:29;;;;;;;1.45;1.33;;;;;;;;;;5099293;28;20236;-17
2022/06/15 04:27:56;;;;;;;2.05;1.27;;;;;;;;;;5105503;28;20239;-17
2022/06/15 04:30:24;;;;;;;2.40;1.35;;;;;;;;;;5101967;28;20225;-17
2022/06/15 04:32:51;;;;;;;2.38;1.30;;;;;;;;;;5104122;28;20232;-17
2022/06/15 04:35:20;;;;;;;3.55;1.27;;;;;;;;;;5107088;28;20228;-17
2022/06/15 04:37:48;;;;;;;2.47;1.40;;;;;;;;;;5107170;28;20232;-17
2022/06/15 04:40:17;;;;;;;3.10;1.52;;;;;;;;;;5104283;28;20244;-17
2022/06/15 04:42:44;;;;;;;2.72;1.23;;;;;;;;;;5104216;28;20722;-17
2022/06/15 04:45:12;;;;;;;2.70;1.65;;;;;;;;;;5110459;27;20583;-17
2022/06/15 04:47:39;;;;;;;2.33;1.50;;;;;;;;;;5106785;28;21006;-16
2022/06/15 04:50:07;;;;;;;6.18;1.42;;;;;;;;;;5108055;28;20949;-17
2022/06/15 04:52:35;;;;;;;2.78;1.40;;;;;;;;;;5102255;28;20238;-17
2022/06/15 04:55:04;;;;;;;2.30;1.30;;;;;;;;;;5108121;28;20263;-17
2022/06/15 04:57:33;;;;;;;2.38;1.10;;;;;;;;;;5104753;28;20228;-17
2022/06/15 05:00:00;;;;;;;4.18;1.40;;;;;;;;;;5107115;27;20240;-17
2022/06/15 05:02:28;;;;;;;3.53;1.27;;;;;;;;;;5108873;28;20231;-17
2022/06/15 05:04:56;;;;;;;3.28;1.40;;;;;;;;;;5095847;28;20278;-17
2022/06/15 05:07:23;;;;;;;2.40;1.33;;;;;;;;;;5094160;28;20251;-17
2022/06/15 05:09:51;;;;;;;2.53;1.38;;;;;;;;;;5095593;28;20228;-17
2022/06/15 05:12:19;;;;;;;2.65;1.38;;;;;;;;;;5092615;28;20232;-17
2022/06/15 05:14:47;;;;;;;1.77;1.33;;;;;;;;;;5097140;27;20232;-17
2022/06/15 05:17:15;;;;;;;5.15;1.33;;;;;;;;;;5102255;28;20257;-17
2022/06/15 05:19:43;;;;;;;6.63;1.67;;;;;;;;;;5105379;28;20264;-17
2022/06/15 05:22:10;;;;;;;6.43;1.70;;;;;;;;;;5110736;28;20244;-17
2022/06/15 05:24:37;;;;;;;3.72;2.10;;;;;;;;;;5104762;28;20228;-17
2022/06/15 05:27:05;;;;;;;7.82;1.90;;;;;;;;;;5106011;28;20238;-16
2022/06/15 05:29:34;;;;;;;6.72;1.55;;;;;;;;;;5109133;28;20232;-17
2022/06/15 05:32:03;;;;;;;3.53;1.80;;;;;;;;;;5108840;28;20228;-17
2022/06/15 05:34:31;;;;;;;3.67;1.90;;;;;;;;;;5110114;28;20305;-17
2022/06/15 05:36:58;;;;;;;3.60;1.60;;;;;;;;;;5104283;28;21145;-17
2022/06/15 05:39:25;;;;;;;2.75;1.67;;;;;;;;;;5105303;27;21181;-17
2022/06/15 05:41:53;;;;;;;3.00;1.77;;;;;;;;;;5098620;28;20259;-17
2022/06/15 05:44:23;;;;;;;5.70;1.92;;;;;;;;;;5098152;28;20231;-17
2022/06/15 05:46:55;;;;;;;5.30;1.70;;;;;;;;;;5100336;28;20306;-17
2022/06/15 05:49:24;;;;;;;2.80;1.40;;;;;;;;;;5098684;28;20232;-17
2022/06/15 05:51:51;;;;;;;8.00;1.60;;;;;;;;;;5096807;27;20866;-17
2022/06/15 05:54:18;;;;;;;5.18;1.27;;;;;;;;;;5098322;28;20228;-17
2022/06/15 05:56:46;;;;;;;3.60;1.33;;;;;;;;;;5097310;28;20229;-17
2022/06/15 05:59:13;;;;;;;6.90;1.65;;;;;;;;;;5102526;28;20690;-17
2022/06/15 06:01:41;;;;;;;12.05;1.85;;;;;;;;;;5102314;28;20240;-17
2022/06/15 06:04:09;;;;;;;3.22;1.13;;;;;;;;;;5102322;28;20209;-17
2022/06/15 06:06:37;;;;;;;9.07;1.65;;;;;;;;;;5098925;28;21185;-17
2022/06/15 06:09:05;;;;;;;3.55;1.40;;;;;;;;;;5098163;28;20229;-17
2022/06/15 06:11:32;;;;;;;2.05;1.30;;;;;;;;;;5104198;28;20228;-17
2022/06/15 06:14:00;;;;;;;3.30;1.30;;;;;;;;;;5097207;28;21075;-17
2022/06/15 06:16:27;;;;;;;4.03;1.50;;;;;;;;;;5097705;28;20604;-17
2022/06/15 06:18:55;;;;;;;1.75;1.38;;;;;;;;;;5101939;28;20239;-17
2022/06/15 06:21:22;;;;;;;6.13;1.92;;;;;;;;;;5098850;28;20244;-17
2022/06/15 06:23:51;;;;;;;6.28;1.83;;;;;;;;;;5101302;28;20231;-17
2022/06/15 06:26:19;;;;;;;2.85;1.50;;;;;;;;;;5099028;28;21000;-17
2022/06/15 06:28:46;;;;;;;3.50;1.58;;;;;;;;;;5109221;28;20749;-18
2022/06/15 06:31:14;;;;;;;2.67;1.40;;;;;;;;;;5113102;28;20280;-17
2022/06/15 06:33:41;;;;;;;2.22;1.20;;;;;;;;;;5103482;28;20258;-17
2022/06/15 06:36:11;;;;;;;5.72;1.40;;;;;;;;;;5098173;28;20231;-17
2022/06/15 06:38:39;;;;;;;5.40;1.67;;;;;;;;;;5106394;28;20236;-17
2022/06/15 06:41:08;;;;;;;3.35;1.48;;;;;;;;;;5114511;28;20282;-17
2022/06/15 06:43:36;;;;;;;2.78;1.40;;;;;;;;;;5112670;28;20220;-17
2022/06/15 06:46:03;;;;;;;9.23;1.40;;;;;;;;;;5099440;28;20239;-17
2022/06/15 06:48:31;;;;;;;2.13;1.13;;;;;;;;;;5115373;27;20267;-17
2022/06/15 06:50:58;;;;;;;2.53;1.48;;;;;;;;;;5115772;28;20705;-17
2022/06/15 06:53:25;;;;;;;2.97;1.55;;;;;;;;;;5103042;28;20703;-17
2022/06/15 06:55:53;;;;;;;3.13;1.38;;;;;;;;;;5102743;28;20974;-17
2022/06/15 06:58:21;;;;;;;4.47;1.45;;;;;;;;;;5114396;28;20232;-17
2022/06/15 07:00:50;;;;;;;2.20;1.20;;;;;;;;;;5109551;28;20236;-17
2022/06/15 07:03:18;;;;;;;3.47;1.30;;;;;;;;;;5101073;28;20224;-17
2022/06/15 07:05:45;;;;;;;4.10;1.30;;;;;;;;;;5114407;28;20236;-17
2022/06/15 07:08:13;;;;;;;6.28;1.55;;;;;;;;;;5103921;28;21010;-17
2022/06/15 07:10:40;;;;;;;3.45;1.30;;;;;;;;;;5112192;28;20266;-17
2022/06/15 07:13:08;;;;;;;3.38;1.27;;;;;;;;;;5107336;28;20240;-17
2022/06/15 07:15:39;;;;;;;3.83;1.17;;;;;;;;;;5103596;28;20223;-17
2022/06/15 07:18:07;;;;;;;3.17;1.40;;;;;;;;;;5101503;28;21094;-17
2022/06/15 07:20:34;;;;;;;2.97;1.63;;;;;;;;;;5113450;28;20224;-17
2022/06/15 07:23:02;;;;;;;2.75;1.42;;;;;;;;;;5109186;28;20268;-17
2022/06/15 07:25:29;;;;;;;4.05;1.55;;;;;;;;;;5110992;28;20725;-17
2022/06/15 07:27:57;;;;;;;3.05;1.48;;;;;;;;;;5096124;28;20331;-17
2022/06/15 07:30:25;;;;;;;3.58;1.45;;;;;;;;;;5103579;28;20221;-17
2022/06/15 07:32:53;;;;;;;5.82;1.40;;;;;;;;;;5108112;27;20236;-17
2022/06/15 07:35:22;;;;;;;2.80;1.75;;;;;;;;;;5097398;28;20240;-17
2022/06/15 07:37:49;;;;;;;4.85;1.42;;;;;;;;;;5111331;28;20236;-17
2022/06/15 07:40:36;;;;;;;6.30;1.80;;;;;;;;;;5113540;27;20239;-17
2022/06/15 07:43:10;;;;;;;3.75;1.80;;;;;;;;;;5111878;28;20235;-17
2022/06/15 07:45:38;;;;;;;9.48;2.35;;;;;;;;;;5114541;28;20239;-17
2022/06/15 07:50:52;;;;;;;3.00;1.52;;;;;;;;;;5098160;28;20229;-17
2022/06/15 07:53:19;;;;;;;4.68;1.95;;;;;;;;;;5108809;28;20243;-17
2022/06/15 07:55:47;;;;;;;5.07;1.63;;;;;;;;;;5110736;28;20243;-17
2022/06/15 07:58:15;;;;;;;7.30;1.63;;;;;;;;;;5104265;28;20231;-17
2022/06/15 08:00:43;;;;;;;6.85;1.80;;;;;;;;;;5112597;28;20228;-18
2022/06/15 08:03:12;;;;;;;8.63;1.60;;;;;;;;;;5109589;28;20220;-17
2022/06/15 08:05:40;;;;;;;5.40;1.65;;;;;;;;;;5110932;28;20235;-17
2022/06/15 08:08:08;;;;;;;9.57;1.67;;;;;;;;;;5107491;28;20224;-17
2022/06/15 08:10:36;;;;;;;7.22;1.70;;;;;;;;;;5108740;28;20224;-17
2022/06/15 08:13:04;;;;;;;8.95;1.92;;;;;;;;;;5100071;28;20236;-17
2022/06/15 08:15:31;;;;;;;6.50;2.00;;;;;;;;;;5101984;28;20228;-17
2022/06/15 08:17:59;;;;;;;6.60;2.17;;;;;;;;;;5113778;28;21028;-17
2022/06/15 08:20:29;;;;;;;8.77;1.98;;;;;;;;;;5112834;28;20232;-17
2022/06/15 08:22:57;;;;;;;4.03;1.80;;;;;;;;;;5103456;28;20994;-17
2022/06/15 08:25:29;;;;;;;5.00;1.77;;;;;;;;;;5106513;27;20285;-17
2022/06/15 08:27:57;;;;;;;7.18;1.70;;;;;;;;;;5103152;28;20225;-17
2022/06/15 08:30:24;;;;;;;5.38;1.60;;;;;;;;;;5108474;28;20323;-17
2022/06/15 08:32:51;;;;;;;8.95;1.65;;;;;;;;;;5114007;28;20224;-17
2022/06/15 08:35:19;;;;;;;4.13;1.77;;;;;;;;;;5113776;28;20240;-17
2022/06/15 08:37:47;;;;;;;4.78;1.80;;;;;;;;;;5114392;28;20220;-17
2022/06/15 08:40:15;;;;;;;5.95;1.70;;;;;;;;;;5111912;27;20236;-17
2022/06/15 08:42:46;;;;;;;4.47;1.98;;;;;;;;;;5107209;28;20232;-17
2022/06/15 08:45:15;;;;;;;6.93;1.80;;;;;;;;;;5109096;28;20236;-17
2022/06/15 08:48:01;;;;;;;7.38;2.55;;;;;;;;;;5108726;28;20236;-17
2022/06/15 08:50:30;;;;;;;7.68;1.95;;;;;;;;;;5108571;28;20232;-17
2022/06/15 08:53:00;;;;;;;7.15;2.20;;;;;;;;;;5109727;28;20232;-17
2022/06/15 08:55:32;;;;;;;6.85;2.13;;;;;;;;;;5109977;28;20227;-17
2022/06/15 08:58:01;;;;;;;3.83;2.00;;;;;;;;;;5109691;28;20236;-17
2022/06/15 09:00:29;;;;;;;5.80;2.10;;;;;;;;;;5108825;28;20243;-17
2022/06/15 09:02:59;;;;;;;8.05;2.75;;;;;;;;;;5109814;28;20239;-17
2022/06/15 09:05:29;;;;;;;5.78;1.90;;;;;;;;;;5109508;27;20969;-17
2022/06/15 09:08:01;;;;;;;5.63;2.08;;;;;;;;;;5110188;28;20255;-18
2022/06/15 09:10:34;;;;;;;4.28;1.80;;;;;;;;;;5106835;28;20228;-17
2022/06/15 09:13:05;;;;;;;5.80;2.20;;;;;;;;;;5110351;27;20229;-17
2022/06/15 09:15:35;;;;;;;5.85;1.85;;;;;;;;;;5108320;28;20223;-17
2022/06/15 09:18:03;;;;;;;6.70;2.30;;;;;;;;;;5111368;28;20272;-17
2022/06/15 09:20:31;;;;;;;5.55;2.30;;;;;;;;;;5107030;28;20238;-17
2022/06/15 09:23:00;;;;;;;4.07;2.15;;;;;;;;;;5109013;28;20258;-17
2022/06/15 09:25:30;;;;;;;5.18;1.98;;;;;;;;;;5108059;28;20232;-17
2022/06/15 09:27:58;;;;;;;5.53;1.80;;;;;;;;;;5107871;28;20236;-17
2022/06/15 09:30:27;;;;;;;4.97;2.05;;;;;;;;;;5106930;28;20410;-17
2022/06/15 09:32:55;;;;;;;3.50;1.60;;;;;;;;;;5110167;27;20232;-17
2022/06/15 09:35:23;;;;;;;9.73;1.92;;;;;;;;;;5105674;28;20223;-17
2022/06/15 09:37:51;;;;;;;8.52;2.20;;;;;;;;;;5109616;28;20236;-17
2022/06/15 09:40:19;;;;;;;4.25;1.75;;;;;;;;;;5109261;28;20232;-17
2022/06/15 09:42:52;;;;;;;4.90;1.73;;;;;;;;;;5107325;27;20236;-19
2022/06/15 09:45:21;;;;;;;5.85;1.88;;;;;;;;;;5105717;28;20254;-18
2022/06/15 09:47:50;;;;;;;4.32;1.70;;;;;;;;;;5108734;28;20235;-18
2022/06/15 09:50:21;;;;;;;5.57;1.92;;;;;;;;;;5108152;28;20232;-17
2022/06/15 09:52:54;;;;;;;4.20;1.98;;;;;;;;;;5108935;27;20236;-17
2022/06/15 09:55:24;;;;;;;9.27;1.95;;;;;;;;;;5106998;28;20465;-17
2022/06/15 09:57:53;;;;;;;4.40;2.03;;;;;;;;;;5105327;28;20232;-17
2022/06/15 10:00:20;;;;;;;4.95;1.98;;;;;;;;;;5106585;27;20228;-17
2022/06/15 10:02:48;;;;;;;3.22;1.50;;;;;;;;;;5108855;27;20247;-17
2022/06/15 10:05:19;;;;;;;4.40;1.80;;;;;;;;;;5104643;28;20246;-17
2022/06/15 10:07:47;;;;;;;4.65;1.80;;;;;;;;;;5107289;28;20236;-17
2022/06/15 10:10:16;;;;;;;4.40;1.83;;;;;;;;;;5104657;28;20434;-17
2022/06/15 10:12:57;;;;;;;5.75;1.77;;;;;;;;;;5103506;28;21162;-17
2022/06/15 10:15:27;;;;;;;5.50;2.03;;;;;;;;;;5072110;27;20233;-16
2022/06/15 10:17:56;;;;;;;2.92;1.65;;;;;;;;;;5065304;28;115347;-16
2022/06/15 10:20:25;;;;;;;5.95;1.90;;;;;;;;;;5063161;28;20260;-16
2022/06/15 10:22:53;;;;;;;5.03;1.85;;;;;;;;;;5069705;28;78653;-16
2022/06/15 10:25:20;;;;;;;4.00;1.85;;;;;;;;;;5060642;28;20228;-16
2022/06/15 10:27:48;;;;;;;6.60;2.08;;;;;;;;;;5065846;28;20312;-16
2022/06/15 10:30:17;;;;;;;6.75;2.33;;;;;;;;;;5067063;28;20244;-16
2022/06/15 10:32:59;;;;;;;6.45;1.92;;;;;;;;;;5066949;28;20230;-16
2022/06/15 10:35:26;;;;;;;4.80;1.52;;;;;;;;;;5067501;28;20241;-16
2022/06/15 10:37:54;;;;;;;4.38;1.58;;;;;;;;;;5076781;28;20229;-16
2022/06/15 10:40:29;;;;;;;4.35;2.00;;;;;;;;;;5074555;28;20237;-16
2022/06/15 10:42:57;;;;;;;5.78;1.85;;;;;;;;;;5072771;28;20233;-16
2022/06/15 10:45:26;;;;;;;5.85;1.60;;;;;;;;;;5072797;28;20724;-16
2022/06/15 10:47:55;;;;;;;3.30;1.60;;;;;;;;;;5059504;28;20720;-16
2022/06/15 10:50:26;;;;;;;3.35;1.70;;;;;;;;;;5065911;28;20363;-16
2022/06/15 10:53:23;;;;;;;5.72;2.15;;;;;;;;;;5070881;28;20775;-17
2022/06/15 11:04:12;;;;;;;3.53;1.63;;;;;;;;;;5064530;28;20237;-16
2022/06/15 11:06:43;;;;;;;3.67;1.42;;;;;;;;;;5071588;28;20252;-16
2022/06/15 11:09:17;;;;;;;5.75;1.70;;;;;;;;;;5073028;28;20237;-16
2022/06/15 11:11:45;;;;;;;4.32;1.42;;;;;;;;;;5072803;28;20236;-16
2022/06/15 11:14:14;;;;;;;4.80;1.85;;;;;;;;;;5069476;28;20723;-16
2022/06/15 11:19:27;;;;;;;5.78;2.10;;;;;;;;;;5069491;28;20339;-16
2022/06/15 11:22:03;;;;;;;6.13;1.58;;;;;;;;;;5074129;28;20239;-16
2022/06/15 11:24:33;;;;;;;3.13;1.58;;;;;;;;;;5063087;28;20234;-16
2022/06/15 11:27:03;;;;;;;4.25;2.03;;;;;;;;;;5070268;28;20236;-16
2022/06/15 11:29:38;;;;;;;5.40;2.00;;;;;;;;;;5069048;28;20237;-16
2022/06/15 11:32:07;;;;;;;18.50;2.75;;;;;;;;;;5080482;28;20228;-16
2022/06/15 11:34:37;;;;;;;4.57;2.45;;;;;;;;;;5073515;28;20288;-16
2022/06/15 11:37:06;;;;;;;5.10;2.80;;;;;;;;;;5071984;28;20245;-16
2022/06/15 11:39:34;;;;;;;3.72;2.42;;;;;;;;;;5065115;28;20276;-16
2022/06/15 11:42:01;;;;;;;4.68;2.55;;;;;;;;;;5074737;28;20241;-16
2022/06/15 11:44:30;;;;;;;4.43;2.50;;;;;;;;;;5070918;28;20239;-16
2022/06/15 11:47:02;;;;;;;4.90;2.33;;;;;;;;;;5071215;28;20233;-16
2022/06/15 11:49:32;;;;;;;4.10;2.47;;;;;;;;;;5075558;28;20237;-16
2022/06/15 11:52:04;;;;;;;4.00;2.45;;;;;;;;;;5070432;28;20299;-17
2022/06/15 11:54:38;;;;;;;4.07;2.22;;;;;;;;;;5071153;28;20629;-17
2022/06/15 11:57:07;;;;;;;5.32;2.60;;;;;;;;;;5075284;28;20721;-16
2022/06/15 11:59:36;;;;;;;4.45;2.30;;;;;;;;;;5071537;28;20235;-17
2022/06/15 12:02:05;;;;;;;4.57;2.83;;;;;;;;;;5077282;28;20237;-16
2022/06/15 12:04:51;;;;;;;6.00;2.88;;;;;;;;;;5073778;28;20260;-16
2022/06/15 12:07:20;;;;;;;3.78;2.10;;;;;;;;;;5075179;28;20245;-16
2022/06/15 12:09:56;;;;;;;4.63;2.60;;;;;;;;;;5067121;28;20237;-16
2022/06/15 12:15:18;;;;;;;4.90;2.70;;;;;;;;;;5051183;28;20284;-17
2022/06/15 12:17:47;;;;;;;5.20;2.80;;;;;;;;;;5083425;28;20245;-17
2022/06/15 12:20:17;;;;;;;3.45;2.45;;;;;;;;;;5071099;28;20696;-16
2022/06/15 12:22:45;;;;;;;3.67;2.47;;;;;;;;;;5071112;28;20237;-16
2022/06/15 12:25:16;;;;;;;5.53;2.65;;;;;;;;;;5076643;28;20241;-16
2022/06/15 12:27:45;;;;;;;5.00;2.58;;;;;;;;;;5068660;28;20352;-16
2022/06/15 12:30:16;;;;;;;4.78;2.67;;;;;;;;;;5069099;28;20240;-16
2022/06/15 12:32:44;;;;;;;5.63;2.95;;;;;;;;;;5068557;28;20229;-16
2022/06/15 12:35:23;;;;;;;6.38;2.70;;;;;;;;;;5069755;28;21052;-16
2022/06/15 12:37:55;;;;;;;8.38;2.50;;;;;;;;;;5068325;28;20234;-16
2022/06/15 12:40:25;;;;;;;5.07;2.75;;;;;;;;;;5068892;28;20229;-17
2022/06/15 12:42:54;;;;;;;6.63;3.00;;;;;;;;;;5067448;28;20237;-16
2022/06/15 12:45:22;;;;;;;5.05;2.50;;;;;;;;;;5074576;28;20731;-16
2022/06/15 12:47:52;;;;;;;3.97;2.40;;;;;;;;;;5075931;28;20243;-16
2022/06/15 12:50:25;;;;;;;5.55;2.30;;;;;;;;;;5077006;28;20339;-17
2022/06/15 12:52:53;;;;;;;6.43;2.65;;;;;;;;;;5065298;28;21138;-16
2022/06/15 12:55:22;;;;;;;7.43;2.30;;;;;;;;;;5069723;28;20708;-16
2022/06/15 12:57:52;;;;;;;3.05;2.10;;;;;;;;;;5070679;28;20233;-16
2022/06/15 13:00:20;;;;;;;3.53;2.38;;;;;;;;;;5068751;28;20233;-16
2022/06/15 13:02:48;;;;;;;3.55;2.38;;;;;;;;;;5072862;28;20641;-16
2022/06/15 13:05:19;;;;;;;3.05;2.42;;;;;;;;;;5067959;28;20242;-16
2022/06/15 13:08:14;;;;;;;6.32;2.30;;;;;;;;;;5079366;28;20236;-16
2022/06/15 13:10:43;;;;;;;3.78;2.28;;;;;;;;;;5068570;28;20234;-17
2022/06/15 13:13:11;;;;;;;5.57;2.30;;;;;;;;;;5081537;28;20316;-16
2022/06/15 13:15:55;;;;;;;4.10;2.65;;;;;;;;;;5066932;28;20324;-16
2022/06/15 13:18:37;;;;;;;9.32;2.35;;;;;;;;;;5074170;28;20311;-16
2022/06/15 13:21:05;;;;;;;3.72;2.22;;;;;;;;;;5074991;28;20251;-16
2022/06/15 13:23:34;;;;;;;3.35;1.80;;;;;;;;;;5072214;28;20233;-17
2022/06/15 13:26:05;;;;;;;3.88;2.30;;;;;;;;;;5064730;28;20746;-17
2022/06/15 13:28:33;;;;;;;4.55;2.08;;;;;;;;;;5067882;28;20639;-16
2022/06/15 13:31:02;;;;;;;3.60;2.15;;;;;;;;;;5070716;28;20667;-17
2022/06/15 13:33:57;;;;;;;2.80;2.20;;;;;;;;;;5065948;28;20289;-17
2022/06/15 13:36:24;;;;;;;6.60;2.13;;;;;;;;;;5032867;28;20241;-16
2022/06/15 13:38:53;;;;;;;3.92;2.30;;;;;;;;;;5066356;28;20229;-17
2022/06/15 13:41:26;;;;;;;5.15;2.10;;;;;;;;;;5074204;28;20305;-17
2022/06/15 13:44:25;;;;;;;3.42;1.73;;;;;;;;;;5065613;28;20241;-17
2022/06/15 13:47:10;;;;;;;2.63;2.00;;;;;;;;;;5067826;28;20236;-16
2022/06/15 13:49:44;;;;;;;3.58;1.60;;;;;;;;;;5075239;28;20994;-16
2022/06/15 13:52:12;;;;;;;4.57;2.05;;;;;;;;;;5068028;28;20217;-16
2022/06/15 13:54:48;;;;;;;11.60;2.40;;;;;;;;;;5071965;28;20234;-16
2022/06/15 13:57:21;;;;;;;3.08;2.05;;;;;;;;;;5071365;28;20232;-17
2022/06/15 13:59:51;;;;;;;4.15;2.22;;;;;;;;;;5072994;28;20241;-17
2022/06/15 14:02:24;;;;;;;4.05;1.95;;;;;;;;;;5074408;28;20254;-17
2022/06/15 14:04:54;;;;;;;7.32;2.08;;;;;;;;;;5070576;28;20245;-16
2022/06/15 14:07:27;;;;;;;3.53;1.98;;;;;;;;;;5077596;28;20233;-17
2022/06/15 14:09:57;;;;;;;5.40;2.05;;;;;;;;;;5071897;28;20229;-17
2022/06/15 14:12:46;;;;;;;4.00;1.60;;;;;;;;;;5076125;28;20229;-16
2022/06/15 14:15:40;;;;;;;2.70;2.00;;;;;;;;;;5064516;28;20234;-17
2022/06/15 14:18:41;;;;;;;11.23;2.00;;;;;;;;;;5069269;28;20248;-16
2022/06/15 14:21:29;;;;;;;6.07;1.50;;;;;;;;;;5075292;28;20241;-16
2022/06/15 14:23:57;;;;;;;5.55;1.80;;;;;;;;;;5062142;28;20719;-16
2022/06/15 14:26:25;;;;;;;4.53;2.15;;;;;;;;;;5076442;28;20248;-16
2022/06/15 14:28:56;;;;;;;4.18;1.67;;;;;;;;;;5073868;28;20236;-16
2022/06/15 14:31:31;;;;;;;4.63;1.90;;;;;;;;;;5068129;28;20235;-17
2022/06/15 14:34:02;;;;;;;2.90;1.60;;;;;;;;;;5078933;28;20239;-16
2022/06/15 14:36:29;;;;;;;4.10;1.73;;;;;;;;;;5068629;28;20614;-16
2022/06/15 14:38:59;;;;;;;2.88;1.58;;;;;;;;;;5070335;28;21089;-16
2022/06/15 14:41:27;;;;;;;2.85;1.60;;;;;;;;;;5079134;28;20230;-16
2022/06/15 14:43:56;;;;;;;3.65;1.85;;;;;;;;;;5073696;28;20237;-16
2022/06/15 14:46:24;;;;;;;3.55;1.80;;;;;;;;;;5072962;28;20303;-16
2022/06/15 14:48:52;;;;;;;5.53;1.88;;;;;;;;;;5072278;28;20229;-17
2022/06/15 14:51:20;;;;;;;3.05;1.63;;;;;;;;;;5073611;28;20233;-16
2022/06/15 14:53:55;;;;;;;4.13;1.50;;;;;;;;;;5079952;28;20375;-16
2022/06/15 14:56:23;;;;;;;2.30;1.60;;;;;;;;;;5079225;28;20235;-16
2022/06/15 14:58:58;;;;;;;3.35;1.63;;;;;;;;;;5084233;28;20236;-16
2022/06/15 15:01:26;;;;;;;5.28;1.90;;;;;;;;;;5075986;28;20615;-16
2022/06/15 15:03:53;;;;;;;6.88;1.67;;;;;;;;;;5080737;28;20672;-16
2022/06/15 15:06:21;;;;;;;4.30;1.73;;;;;;;;;;5069866;28;20275;-16
2022/06/15 15:08:49;;;;;;;2.97;1.67;;;;;;;;;;5070644;28;20237;-16
2022/06/15 15:11:27;;;;;;;2.70;1.38;;;;;;;;;;5071273;28;20240;-16
2022/06/15 15:14:00;;;;;;;2.67;1.67;;;;;;;;;;5071147;28;20237;-16
2022/06/15 15:16:29;;;;;;;2.92;1.85;;;;;;;;;;5075097;28;20629;-16